Time;durP1;ratioP1;P1;durP2;ratioP2;P2;SDS_P1;SDS_P2;PMS_P1;PMS_P2;Temp;Humidity;BMP_temperature;BMP_pressure;BME280_temperature;BME280_humidity;BME280_pressure;Samples;Min_cycle;Max_cycle;Signal;HPM_P1;HPM_P2
2022/11/14 00:01:35;;;;;;;23.52;14.65;;;10.00;67.60;;;;;;5038305;28;20044;-62
2022/11/14 00:04:19;;;;;;;25.77;15.93;;;10.00;67.70;;;;;;5030600;28;20068;-62
2022/11/14 00:07:04;;;;;;;27.25;16.63;;;10.00;67.90;;;;;;5037461;28;20388;-62
2022/11/14 00:09:48;;;;;;;24.90;16.38;;;10.00;68.00;;;;;;5036638;28;20115;-62
2022/11/14 00:12:33;;;;;;;25.98;16.58;;;9.90;68.10;;;;;;5036460;28;20381;-62
2022/11/14 00:15:17;;;;;;;26.13;17.85;;;9.90;68.20;;;;;;5045638;28;20535;-62
2022/11/14 00:18:01;;;;;;;27.25;17.55;;;9.80;68.20;;;;;;5057706;28;20063;-62
2022/11/14 00:20:49;;;;;;;27.40;17.42;;;9.80;68.20;;;;;;5041502;28;20040;-62
2022/11/14 00:23:34;;;;;;;31.40;18.15;;;9.80;68.40;;;;;;5038266;28;20090;-62
2022/11/14 00:26:18;;;;;;;28.80;17.83;;;9.70;68.50;;;;;;5066572;28;20059;-62
2022/11/14 00:29:02;;;;;;;27.63;18.25;;;9.70;68.60;;;;;;5050345;28;20037;-62
2022/11/14 00:31:47;;;;;;;29.90;18.45;;;9.70;68.70;;;;;;5056147;28;20040;-62
2022/11/14 00:34:31;;;;;;;30.40;18.50;;;9.70;68.70;;;;;;5038678;28;20170;-62
2022/11/14 00:37:15;;;;;;;28.67;19.08;;;9.70;68.90;;;;;;5032861;28;20133;-61
2022/11/14 00:39:59;;;;;;;30.73;19.05;;;9.60;68.90;;;;;;5043016;28;20168;-62
2022/11/14 00:42:43;;;;;;;28.00;17.98;;;9.60;68.90;;;;;;5049727;28;20083;-62
2022/11/14 00:45:27;;;;;;;28.60;18.60;;;9.60;69.00;;;;;;5041174;28;20082;-61
2022/11/14 00:48:12;;;;;;;28.15;18.27;;;9.60;69.10;;;;;;5052264;28;20129;-61
2022/11/14 00:50:56;;;;;;;28.13;18.60;;;9.50;69.20;;;;;;5045647;28;20110;-62
2022/11/14 00:53:40;;;;;;;30.23;18.55;;;9.50;69.20;;;;;;5036479;28;20041;-61
2022/11/14 00:56:24;;;;;;;28.80;19.27;;;9.50;69.30;;;;;;5037215;28;20033;-61
2022/11/14 00:59:08;;;;;;;27.75;18.10;;;9.50;69.30;;;;;;5035837;28;20091;-62
2022/11/14 01:01:52;;;;;;;27.40;19.00;;;9.50;69.40;;;;;;5050485;28;20079;-61
2022/11/14 01:04:36;;;;;;;29.02;17.58;;;9.40;69.40;;;;;;5031960;28;20072;-61
2022/11/14 01:07:20;;;;;;;29.92;19.15;;;9.40;69.50;;;;;;5024324;28;20041;-62
2022/11/14 01:10:05;;;;;;;31.35;19.35;;;9.40;69.60;;;;;;5035005;28;20103;-64
2022/11/14 01:12:49;;;;;;;30.95;19.27;;;9.40;69.60;;;;;;5036821;28;20044;-62
2022/11/14 01:15:38;;;;;;;29.98;18.90;;;9.40;69.70;;;;;;5047149;28;20098;-62
2022/11/14 01:18:23;;;;;;;31.77;19.02;;;9.40;69.80;;;;;;5057257;28;20087;-62
2022/11/14 01:21:10;;;;;;;30.50;19.27;;;9.30;69.80;;;;;;5052077;28;20051;-62
2022/11/14 01:23:55;;;;;;;31.30;18.75;;;9.30;69.90;;;;;;5028489;28;20365;-61
2022/11/14 01:26:39;;;;;;;28.58;18.45;;;9.30;70.00;;;;;;5046029;28;20094;-62
2022/11/14 01:29:24;;;;;;;31.77;19.13;;;9.30;70.00;;;;;;5045086;28;20040;-62
2022/11/14 01:32:08;;;;;;;30.25;19.70;;;9.30;70.00;;;;;;5033431;28;20040;-62
2022/11/14 01:34:52;;;;;;;31.02;18.77;;;9.20;70.00;;;;;;5035092;28;20045;-61
2022/11/14 01:37:36;;;;;;;32.17;19.77;;;9.20;70.00;;;;;;5036402;28;20067;-62
2022/11/14 01:40:20;;;;;;;32.78;19.75;;;9.20;70.10;;;;;;5035120;28;20099;-61
2022/11/14 01:43:30;;;;;;;32.08;19.98;;;9.20;70.10;;;;;;5034189;28;20481;-62
2022/11/14 01:46:18;;;;;;;31.67;19.38;;;9.10;70.20;;;;;;5034500;28;20099;-62
2022/11/14 01:49:13;;;;;;;28.90;18.73;;;9.10;70.30;;;;;;5035715;28;20048;-62
2022/11/14 01:52:24;;;;;;;28.67;18.08;;;9.10;71.00;;;;;;5035957;28;20496;-61
2022/11/14 01:55:09;;;;;;;30.73;18.38;;;9.10;70.40;;;;;;5034277;28;20056;-62
2022/11/14 01:57:56;;;;;;;33.15;19.70;;;9.10;70.50;;;;;;5035740;28;20048;-62
2022/11/14 02:00:40;;;;;;;28.20;18.02;;;9.00;70.50;;;;;;5025619;28;20425;-61
2022/11/14 02:03:25;;;;;;;33.38;19.17;;;9.00;70.60;;;;;;5035616;28;20102;-62
2022/11/14 02:06:12;;;;;;;31.70;19.80;;;9.00;70.60;;;;;;5033182;28;20035;-61
2022/11/14 02:09:02;;;;;;;30.85;18.52;;;9.00;70.70;;;;;;5034531;28;20056;-62
2022/11/14 02:11:47;;;;;;;34.28;18.98;;;8.90;70.80;;;;;;5034876;28;20117;-62
2022/11/14 02:14:33;;;;;;;35.92;21.33;;;8.90;70.80;;;;;;5036748;28;20095;-62
2022/11/14 02:17:18;;;;;;;34.25;19.95;;;8.90;70.90;;;;;;5041869;28;20064;-61
2022/11/14 02:20:02;;;;;;;32.25;19.65;;;8.90;70.90;;;;;;5048357;28;20068;-62
2022/11/14 02:22:46;;;;;;;32.80;20.27;;;8.90;70.90;;;;;;5034907;28;20040;-62
2022/11/14 02:25:30;;;;;;;34.58;20.90;;;8.90;70.90;;;;;;5036502;28;20040;-61
2022/11/14 02:28:14;;;;;;;32.30;19.85;;;8.80;71.00;;;;;;5052143;28;20171;-61
2022/11/14 02:30:58;;;;;;;35.60;20.75;;;8.90;71.10;;;;;;5036534;28;20438;-62
2022/11/14 02:33:42;;;;;;;34.95;19.90;;;8.80;71.00;;;;;;5021955;28;20112;-62
2022/11/14 02:36:27;;;;;;;35.08;20.58;;;8.80;71.10;;;;;;5036215;28;20115;-61
2022/11/14 02:39:11;;;;;;;35.63;20.65;;;8.80;71.10;;;;;;5052569;28;20117;-63
2022/11/14 02:41:55;;;;;;;34.40;21.05;;;8.70;71.10;;;;;;5041918;28;20086;-62
2022/11/14 02:44:39;;;;;;;31.58;20.38;;;8.70;71.20;;;;;;5046384;28;20044;-62
2022/11/14 02:47:23;;;;;;;33.10;18.77;;;8.70;71.30;;;;;;5040041;28;20056;-61
2022/11/14 02:50:08;;;;;;;34.10;20.23;;;8.70;71.30;;;;;;5044521;28;20436;-61
2022/11/14 02:52:52;;;;;;;35.30;19.92;;;8.60;71.30;;;;;;5038859;28;20074;-61
2022/11/14 02:55:37;;;;;;;32.28;21.17;;;8.60;71.30;;;;;;5041524;28;20059;-61
2022/11/14 02:58:21;;;;;;;35.53;20.85;;;8.60;72.10;;;;;;5048237;28;20511;-61
2022/11/14 03:01:05;;;;;;;35.10;21.13;;;8.60;71.50;;;;;;5034937;28;20036;-61
2022/11/14 03:03:49;;;;;;;33.05;19.38;;;8.60;71.50;;;;;;5051124;28;20377;-61
2022/11/14 03:06:33;;;;;;;32.85;20.08;;;8.60;71.50;;;;;;5034956;28;20033;-61
2022/11/14 03:09:17;;;;;;;33.80;19.65;;;8.60;71.50;;;;;;5053937;28;20094;-61
2022/11/14 03:12:01;;;;;;;32.20;19.27;;;8.60;71.60;;;;;;5041029;28;20099;-62
2022/11/14 03:14:45;;;;;;;34.53;20.55;;;8.60;71.60;;;;;;5031884;28;20128;-61
2022/11/14 03:17:31;;;;;;;32.38;20.25;;;8.50;71.60;;;;;;5059828;28;20122;-62
2022/11/14 03:20:16;;;;;;;35.95;20.38;;;8.50;71.70;;;;;;5051303;28;20104;-61
2022/11/14 03:23:00;;;;;;;33.75;18.90;;;8.50;71.70;;;;;;5035689;28;20033;-61
2022/11/14 03:25:44;;;;;;;34.92;19.63;;;8.50;71.70;;;;;;5052114;28;20040;-61
2022/11/14 03:28:28;;;;;;;30.63;18.48;;;8.50;71.70;;;;;;5033691;28;20037;-61
2022/11/14 03:31:14;;;;;;;35.63;18.67;;;8.50;71.70;;;;;;5031617;28;20048;-61
2022/11/14 03:33:58;;;;;;;32.92;19.48;;;8.40;71.70;;;;;;5033816;28;20429;-61
2022/11/14 03:36:42;;;;;;;31.23;18.08;;;8.40;71.70;;;;;;5032813;28;20048;-61
2022/11/14 03:39:26;;;;;;;33.40;19.50;;;8.40;71.80;;;;;;5034386;28;20429;-62
2022/11/14 03:42:10;;;;;;;32.28;18.70;;;8.40;71.80;;;;;;5032859;28;20091;-62
2022/11/14 03:44:54;;;;;;;34.38;19.17;;;8.40;71.80;;;;;;5031825;28;20037;-61
2022/11/14 03:47:38;;;;;;;32.65;18.75;;;8.30;71.80;;;;;;5033260;28;20044;-61
2022/11/14 03:50:22;;;;;;;35.03;19.17;;;8.30;71.80;;;;;;5032415;28;20044;-62
2022/11/14 03:53:06;;;;;;;32.58;18.95;;;8.40;71.80;;;;;;5032153;28;20090;-62
2022/11/14 03:55:51;;;;;;;31.85;19.23;;;8.40;71.80;;;;;;5032891;28;20528;-61
2022/11/14 03:58:35;;;;;;;32.47;19.58;;;8.30;71.80;;;;;;5032691;28;20036;-62
2022/11/14 04:01:19;;;;;;;32.42;18.52;;;8.30;71.80;;;;;;5032942;28;20362;-61
2022/11/14 04:04:03;;;;;;;31.52;18.70;;;8.30;71.80;;;;;;5033962;28;20036;-61
2022/11/14 04:06:47;;;;;;;30.55;18.35;;;8.30;71.90;;;;;;5032536;28;20044;-61
2022/11/14 04:09:31;;;;;;;34.00;19.23;;;8.30;71.90;;;;;;5034670;28;20096;-62
2022/11/14 04:12:15;;;;;;;31.60;19.38;;;8.20;71.90;;;;;;5035857;28;20056;-61
2022/11/14 04:14:59;;;;;;;33.47;19.52;;;8.20;71.90;;;;;;5032804;28;20362;-61
2022/11/14 04:17:44;;;;;;;30.80;19.15;;;8.20;71.90;;;;;;5032972;28;20052;-61
2022/11/14 04:20:28;;;;;;;29.77;17.58;;;8.20;72.00;;;;;;5034063;28;20099;-61
2022/11/14 04:23:12;;;;;;;29.42;17.23;;;8.10;72.00;;;;;;5028987;28;20052;-61
2022/11/14 04:25:56;;;;;;;32.25;18.40;;;8.10;72.10;;;;;;5032710;28;20549;-61
2022/11/14 04:28:40;;;;;;;33.05;19.25;;;8.10;72.10;;;;;;5033248;28;20160;-61
2022/11/14 04:31:24;;;;;;;33.30;17.85;;;8.10;72.10;;;;;;5033768;28;20534;-62
2022/11/14 04:34:08;;;;;;;32.95;19.75;;;8.10;72.10;;;;;;5035866;28;20036;-61
2022/11/14 04:36:52;;;;;;;33.70;19.20;;;8.10;72.20;;;;;;5032068;28;20091;-61
2022/11/14 04:39:36;;;;;;;32.08;18.50;;;8.00;72.20;;;;;;5030646;28;20186;-61
2022/11/14 04:42:20;;;;;;;35.13;19.85;;;8.10;72.30;;;;;;5032279;28;20497;-61
2022/11/14 04:45:05;;;;;;;32.55;18.83;;;8.00;72.10;;;;;;5020362;28;20060;-61
2022/11/14 04:47:49;;;;;;;32.17;18.80;;;8.00;72.20;;;;;;5036683;28;20032;-61
2022/11/14 04:50:33;;;;;;;35.05;18.30;;;8.10;72.20;;;;;;5036646;28;20047;-62
2022/11/14 04:53:17;;;;;;;33.45;18.17;;;8.00;72.20;;;;;;5032263;28;20437;-61
2022/11/14 04:56:01;;;;;;;33.30;19.15;;;8.00;72.20;;;;;;5038321;28;20071;-61
2022/11/14 04:58:45;;;;;;;32.72;19.02;;;8.00;72.20;;;;;;5041756;28;20382;-61
2022/11/14 05:01:29;;;;;;;33.83;19.50;;;8.00;72.30;;;;;;5036278;28;20091;-61
2022/11/14 05:04:13;;;;;;;35.83;19.05;;;8.00;72.30;;;;;;5034814;28;20087;-61
2022/11/14 05:06:58;;;;;;;34.80;18.50;;;7.90;72.40;;;;;;5034404;28;20467;-61
2022/11/14 05:09:42;;;;;;;33.05;18.80;;;7.90;72.40;;;;;;5036505;28;20041;-61
2022/11/14 05:12:26;;;;;;;32.72;19.00;;;7.90;72.40;;;;;;5035576;28;20059;-61
2022/11/14 05:15:10;;;;;;;34.10;21.02;;;7.90;72.40;;;;;;5036923;28;20036;-62
2022/11/14 05:17:56;;;;;;;32.40;19.58;;;7.90;72.50;;;;;;5033558;28;20473;-62
2022/11/14 05:20:41;;;;;;;30.60;18.30;;;7.90;72.40;;;;;;5034783;28;20045;-61
2022/11/14 05:23:26;;;;;;;33.05;18.40;;;7.90;72.40;;;;;;5038020;28;20518;-61
2022/11/14 05:26:13;;;;;;;31.65;18.00;;;7.80;72.40;;;;;;5032502;28;20052;-61
2022/11/14 05:28:57;;;;;;;31.02;18.45;;;7.80;72.50;;;;;;5034942;28;20117;-62
2022/11/14 05:31:41;;;;;;;31.05;17.48;;;7.80;72.50;;;;;;5031160;28;20496;-61
2022/11/14 05:34:26;;;;;;;33.35;19.33;;;7.80;72.50;;;;;;5034800;28;20524;-61
2022/11/14 05:37:10;;;;;;;31.15;17.63;;;7.80;72.60;;;;;;5033083;28;20076;-61
2022/11/14 05:39:54;;;;;;;34.03;17.73;;;7.80;72.60;;;;;;5034716;28;20048;-61
2022/11/14 05:42:38;;;;;;;31.30;18.02;;;7.70;72.50;;;;;;5034766;28;20180;-62
2022/11/14 05:45:22;;;;;;;31.38;17.65;;;7.70;72.60;;;;;;5036261;28;20040;-61
2022/11/14 05:48:06;;;;;;;30.65;18.08;;;7.70;72.50;;;;;;5035596;28;20036;-61
2022/11/14 05:50:55;;;;;;;29.00;16.10;;;7.70;72.50;;;;;;5035758;28;20044;-62
2022/11/14 05:53:40;;;;;;;31.88;18.42;;;7.70;72.50;;;;;;5027248;28;20099;-61
2022/11/14 05:56:24;;;;;;;32.00;17.42;;;7.70;72.50;;;;;;5032872;28;20113;-61
2022/11/14 05:59:08;;;;;;;34.22;16.65;;;7.70;72.60;;;;;;5033319;28;20041;-61
2022/11/14 06:01:52;;;;;;;30.10;16.25;;;7.70;72.60;;;;;;5033746;28;20099;-61
2022/11/14 06:04:37;;;;;;;28.98;16.90;;;7.60;72.60;;;;;;5033161;28;20041;-61
2022/11/14 06:07:21;;;;;;;27.58;16.17;;;7.60;72.60;;;;;;5028964;28;20522;-61
2022/11/14 06:10:05;;;;;;;28.63;16.95;;;7.60;72.70;;;;;;5034435;28;20119;-61
2022/11/14 06:12:50;;;;;;;28.83;15.82;;;7.60;72.60;;;;;;5036152;28;20485;-62
2022/11/14 06:15:34;;;;;;;29.92;16.48;;;7.60;72.60;;;;;;5035002;28;20436;-61
2022/11/14 06:18:18;;;;;;;33.35;17.40;;;7.60;72.60;;;;;;5034225;28;20055;-61
2022/11/14 06:21:13;;;;;;;27.27;15.85;;;7.60;72.70;;;;;;5023493;28;20048;-61
2022/11/14 06:23:57;;;;;;;30.42;16.00;;;7.60;72.70;;;;;;5034315;28;20032;-62
2022/11/14 06:26:41;;;;;;;29.65;16.17;;;7.60;72.70;;;;;;5031663;28;20126;-62
2022/11/14 06:29:25;;;;;;;26.95;17.15;;;7.50;72.70;;;;;;5027755;28;20087;-61
2022/11/14 06:32:10;;;;;;;26.15;15.75;;;7.50;72.70;;;;;;5036065;28;20099;-61
2022/11/14 06:34:54;;;;;;;30.02;17.17;;;7.50;72.80;;;;;;5034883;28;20083;-61
2022/11/14 06:37:38;;;;;;;27.55;16.15;;;7.50;72.80;;;;;;5035329;28;20044;-61
2022/11/14 06:40:22;;;;;;;28.08;16.25;;;7.40;72.70;;;;;;5047085;28;20080;-61
2022/11/14 06:43:06;;;;;;;26.92;15.10;;;7.50;72.80;;;;;;5028999;28;20090;-62
2022/11/14 06:45:53;;;;;;;28.50;15.73;;;7.50;72.80;;;;;;5035365;28;20484;-61
2022/11/14 06:48:37;;;;;;;27.83;15.30;;;7.50;72.80;;;;;;5034633;28;20060;-61
2022/11/14 06:51:21;;;;;;;29.50;18.02;;;7.50;72.80;;;;;;5033728;28;20041;-61
2022/11/14 06:54:05;;;;;;;28.35;17.05;;;7.50;72.70;;;;;;5034316;28;20217;-61
2022/11/14 06:56:49;;;;;;;26.85;15.32;;;7.50;72.70;;;;;;5035097;28;20805;-61
2022/11/14 06:59:33;;;;;;;32.92;17.48;;;7.50;72.70;;;;;;5033559;28;20044;-61
2022/11/14 07:02:17;;;;;;;27.88;14.95;;;7.50;72.70;;;;;;5034760;28;20052;-61
2022/11/14 07:05:01;;;;;;;32.05;15.55;;;7.50;72.70;;;;;;5032747;28;20064;-63
2022/11/14 07:07:45;;;;;;;28.45;15.57;;;7.50;72.80;;;;;;5034580;28;20074;-62
2022/11/14 07:10:29;;;;;;;26.70;15.38;;;7.50;72.80;;;;;;5033150;28;20060;-62
2022/11/14 07:13:13;;;;;;;27.75;16.17;;;7.50;72.60;;;;;;5036209;28;20098;-63
2022/11/14 07:15:57;;;;;;;27.13;16.40;;;7.50;72.60;;;;;;5021790;28;20072;-63
2022/11/14 07:18:42;;;;;;;27.17;16.10;;;7.50;72.60;;;;;;5033157;28;20064;-63
2022/11/14 07:21:28;;;;;;;29.00;15.73;;;7.60;72.60;;;;;;5032921;28;20480;-63
2022/11/14 07:24:12;;;;;;;26.70;16.10;;;7.60;72.50;;;;;;5033003;28;20382;-63
2022/11/14 07:26:56;;;;;;;29.92;16.20;;;7.60;72.50;;;;;;5033027;28;20068;-63
2022/11/14 07:29:40;;;;;;;30.15;16.02;;;7.50;72.50;;;;;;5028268;28;20032;-63
2022/11/14 07:32:24;;;;;;;26.42;15.13;;;7.50;72.50;;;;;;5032659;28;20440;-64
2022/11/14 07:35:08;;;;;;;27.63;15.98;;;7.50;73.10;;;;;;5032214;28;20056;-64
2022/11/14 07:38:00;;;;;;;25.02;14.15;;;7.50;72.40;;;;;;5034629;28;20041;-64
2022/11/14 07:41:02;;;;;;;26.98;15.57;;;7.50;72.30;;;;;;5042836;28;20151;-62
2022/11/14 07:43:47;;;;;;;22.98;14.75;;;7.50;72.40;;;;;;5033311;28;20028;-63
2022/11/14 07:46:31;;;;;;;26.92;15.57;;;7.50;72.40;;;;;;5040865;28;20032;-63
2022/11/14 07:49:16;;;;;;;25.33;15.30;;;7.50;72.40;;;;;;5028853;28;20044;-63
2022/11/14 07:52:00;;;;;;;26.85;14.48;;;7.50;72.40;;;;;;5021777;28;20045;-63
2022/11/14 07:54:44;;;;;;;25.88;15.05;;;7.60;72.40;;;;;;5029057;28;20059;-62
2022/11/14 07:57:28;;;;;;;26.35;15.40;;;7.60;72.30;;;;;;5031743;28;20095;-62
2022/11/14 08:00:13;;;;;;;27.25;14.75;;;7.60;72.30;;;;;;5031372;28;20043;-64
2022/11/14 08:02:57;;;;;;;24.73;14.27;;;7.60;72.20;;;;;;5033835;28;20053;-64
2022/11/14 08:05:41;;;;;;;25.17;14.60;;;7.70;72.20;;;;;;5033573;28;20092;-63
2022/11/14 08:08:25;;;;;;;29.15;15.90;;;7.70;72.10;;;;;;5033972;28;20049;-63
2022/11/14 08:11:10;;;;;;;26.67;15.38;;;7.70;72.00;;;;;;5033515;28;20037;-63
2022/11/14 08:13:54;;;;;;;25.42;14.70;;;7.70;71.90;;;;;;5032085;28;20076;-63
2022/11/14 08:16:38;;;;;;;24.58;14.07;;;7.80;71.90;;;;;;5031631;28;20079;-63
2022/11/14 08:19:22;;;;;;;26.23;13.93;;;7.80;71.90;;;;;;5024620;28;20515;-63
2022/11/14 08:22:06;;;;;;;26.17;14.32;;;7.90;71.80;;;;;;5037440;28;20040;-63
2022/11/14 08:24:50;;;;;;;25.08;14.60;;;7.90;71.80;;;;;;5038178;28;20041;-63
2022/11/14 08:27:34;;;;;;;25.70;15.23;;;7.90;71.80;;;;;;5037992;28;20094;-63
2022/11/14 08:30:18;;;;;;;25.33;14.48;;;8.00;71.70;;;;;;5035205;28;20060;-63
2022/11/14 08:33:05;;;;;;;28.10;15.82;;;8.00;71.60;;;;;;5036698;28;20484;-63
2022/11/14 08:35:49;;;;;;;26.83;15.32;;;8.10;71.50;;;;;;5038034;28;20092;-64
2022/11/14 08:38:33;;;;;;;26.58;15.65;;;8.20;71.40;;;;;;5036447;28;20138;-63
2022/11/14 08:41:18;;;;;;;25.15;14.65;;;8.20;71.30;;;;;;5028610;28;20036;-63
2022/11/14 08:44:02;;;;;;;25.02;14.50;;;8.30;71.10;;;;;;5037432;28;20063;-63
2022/11/14 08:46:46;;;;;;;25.60;15.18;;;8.30;71.00;;;;;;5036940;28;20076;-63
2022/11/14 08:49:30;;;;;;;23.27;13.73;;;8.40;71.00;;;;;;5037266;28;20032;-63
2022/11/14 08:52:14;;;;;;;26.83;15.02;;;8.50;70.80;;;;;;5036323;28;20372;-64
2022/11/14 08:54:58;;;;;;;28.83;14.38;;;8.50;70.70;;;;;;5035243;28;20040;-63
2022/11/14 08:57:42;;;;;;;22.58;13.07;;;8.60;70.60;;;;;;5036015;28;20099;-63
2022/11/14 09:00:26;;;;;;;24.17;14.25;;;8.70;70.40;;;;;;5036728;28;20110;-64
2022/11/14 09:03:13;;;;;;;21.80;13.88;;;8.70;70.30;;;;;;5037392;28;20064;-64
2022/11/14 09:05:58;;;;;;;22.70;13.85;;;8.80;70.20;;;;;;5027310;28;20045;-64
2022/11/14 09:08:42;;;;;;;25.15;14.07;;;8.80;70.20;;;;;;5037442;28;20060;-64
2022/11/14 09:11:26;;;;;;;26.38;13.95;;;8.90;70.10;;;;;;5036540;28;20044;-64
2022/11/14 09:14:10;;;;;;;20.58;12.65;;;9.00;69.90;;;;;;5028874;28;20095;-64
2022/11/14 09:16:54;;;;;;;23.10;13.27;;;9.10;69.80;;;;;;5050532;28;20060;-64
2022/11/14 09:19:38;;;;;;;21.90;13.75;;;9.20;69.60;;;;;;5037139;28;20116;-64
2022/11/14 09:22:22;;;;;;;24.15;13.30;;;9.30;69.50;;;;;;5037389;28;20052;-64
2022/11/14 09:25:06;;;;;;;20.20;12.65;;;9.40;69.20;;;;;;5037610;28;20470;-65
2022/11/14 09:27:52;;;;;;;21.83;12.98;;;9.50;68.90;;;;;;5036066;28;20045;-64
2022/11/14 09:30:36;;;;;;;21.48;13.57;;;9.60;68.70;;;;;;5037293;28;20080;-64
2022/11/14 09:33:20;;;;;;;20.42;12.43;;;9.70;68.50;;;;;;5035485;28;20131;-64
2022/11/14 09:36:07;;;;;;;22.33;12.95;;;9.70;68.50;;;;;;5036679;28;20047;-64
2022/11/14 09:38:51;;;;;;;19.42;12.13;;;9.80;68.30;;;;;;5036341;28;20517;-65
2022/11/14 09:42:00;;;;;;;20.85;11.65;;;9.90;68.30;;;;;;5036694;28;20488;-64
2022/11/14 09:45:01;;;;;;;19.48;11.75;;;10.00;68.10;;;;;;5035951;28;20036;-64
2022/11/14 09:47:49;;;;;;;21.33;12.00;;;10.20;67.70;;;;;;5036599;28;20529;-64
2022/11/14 09:50:40;;;;;;;23.65;13.00;;;10.30;67.40;;;;;;5035807;28;20513;-64
2022/11/14 09:53:33;;;;;;;20.85;11.80;;;10.50;67.00;;;;;;5036913;28;20044;-64
2022/11/14 09:56:23;;;;;;;21.92;12.90;;;10.70;66.60;;;;;;5036655;28;20136;-64
2022/11/14 09:59:12;;;;;;;21.05;12.32;;;11.00;66.30;;;;;;5035664;28;20111;-64
2022/11/14 10:02:09;;;;;;;19.80;12.40;;;11.20;66.00;;;;;;5049549;28;20094;-64
2022/11/14 10:05:21;;;;;;;20.40;12.02;;;11.40;65.60;;;;;;5036750;28;20107;-64
2022/11/14 10:08:23;;;;;;;19.27;11.55;;;11.60;65.20;;;;;;5029104;28;20048;-64
2022/11/14 10:11:12;;;;;;;22.77;11.80;;;11.70;64.90;;;;;;5031635;28;20366;-64
2022/11/14 10:14:10;;;;;;;20.75;11.65;;;11.80;64.80;;;;;;5033387;28;20557;-64
2022/11/14 10:17:13;;;;;;;19.92;11.93;;;12.00;64.50;;;;;;5035534;28;20049;-64
2022/11/14 10:20:15;;;;;;;18.38;10.82;;;12.10;64.40;;;;;;5035760;28;20386;-64
2022/11/14 10:23:24;;;;;;;18.75;11.63;;;12.20;64.30;;;;;;5035548;28;20032;-64
2022/11/14 10:26:31;;;;;;;21.27;12.00;;;12.30;64.10;;;;;;5023446;28;20094;-64
2022/11/14 10:29:40;;;;;;;21.67;12.35;;;12.40;63.80;;;;;;5034735;28;20095;-64
2022/11/14 10:33:10;;;;;;;18.13;11.75;;;12.50;63.70;;;;;;5034811;28;20056;-64
2022/11/14 10:36:07;;;;;;;18.27;11.25;;;12.60;64.20;;;;;;5035177;28;20040;-64
2022/11/14 10:39:10;;;;;;;18.63;10.57;;;12.70;63.50;;;;;;5047887;28;20052;-64
2022/11/14 10:42:00;;;;;;;15.32;10.05;;;12.70;63.30;;;;;;5035965;28;20091;-64
2022/11/14 10:45:05;;;;;;;18.00;11.77;;;12.80;63.20;;;;;;5035341;28;20116;-64
2022/11/14 10:47:55;;;;;;;16.77;11.38;;;12.70;63.00;;;;;;5035320;28;20082;-64
2022/11/14 10:50:46;;;;;;;19.38;11.27;;;12.70;63.10;;;;;;5035092;28;20120;-64
2022/11/14 10:53:51;;;;;;;19.55;11.50;;;12.70;63.20;;;;;;5024632;28;20044;-64
2022/11/14 10:56:46;;;;;;;17.55;10.98;;;12.70;63.20;;;;;;5035170;28;20109;-64
2022/11/14 10:59:30;;;;;;;18.25;11.13;;;12.70;63.20;;;;;;5035290;28;20136;-64
2022/11/14 11:02:14;;;;;;;18.00;10.65;;;12.70;63.30;;;;;;5035601;28;20115;-64
2022/11/14 11:05:13;;;;;;;17.88;11.13;;;12.60;63.40;;;;;;5034668;28;20028;-64
2022/11/14 11:14:17;;;;;;;18.23;11.25;;;12.50;63.50;;;;;;5032099;28;20577;-63
2022/11/14 11:17:10;;;;;;;17.95;10.60;;;12.50;63.60;;;;;;5032725;28;20056;-64
2022/11/14 11:19:54;;;;;;;20.90;11.43;;;12.40;63.60;;;;;;5031542;28;20094;-64
2022/11/14 11:22:38;;;;;;;18.83;11.63;;;12.30;63.90;;;;;;5034985;28;20515;-64
2022/11/14 11:25:27;;;;;;;18.52;10.85;;;12.20;64.10;;;;;;5030616;28;20129;-63
2022/11/14 11:28:17;;;;;;;18.73;12.68;;;12.10;64.40;;;;;;5032219;28;20091;-62
2022/11/14 11:31:07;;;;;;;18.83;11.60;;;11.90;64.60;;;;;;5041939;28;20094;-63
2022/11/14 11:33:51;;;;;;;19.52;12.15;;;11.80;64.90;;;;;;5031406;28;20060;-63
2022/11/14 11:36:45;;;;;;;19.63;12.30;;;11.70;65.30;;;;;;5038643;28;20044;-63
2022/11/14 11:39:32;;;;;;;19.83;12.98;;;11.60;65.60;;;;;;5031153;28;20079;-63
2022/11/14 11:42:24;;;;;;;21.17;13.52;;;11.50;65.90;;;;;;5031163;28;20088;-63
2022/11/14 11:45:16;;;;;;;21.23;14.15;;;11.30;66.20;;;;;;5031410;28;20042;-63
2022/11/14 11:48:07;;;;;;;;;;;11.30;66.50;;;;;;5031521;28;20090;-63
2022/11/14 11:50:51;;;;;;;20.23;12.35;;;11.20;66.50;;;;;;5033370;28;19936;-63
2022/11/14 11:53:57;;;;;;;22.30;13.95;;;11.10;66.70;;;;;;5029963;28;20108;-62
2022/11/14 11:56:44;;;;;;;21.58;12.90;;;11.10;67.00;;;;;;5031431;28;20048;-63
2022/11/14 11:59:44;;;;;;;23.65;14.88;;;11.10;67.20;;;;;;5027440;28;20164;-63
2022/11/14 12:02:29;;;;;;;24.90;14.63;;;11.00;67.30;;;;;;5032814;28;20043;-63
2022/11/14 12:05:17;;;;;;;24.77;15.75;;;11.00;67.60;;;;;;5032829;28;20077;-62
2022/11/14 12:08:42;;;;;;;26.17;17.35;;;10.90;67.60;;;;;;5030460;28;20033;-62
2022/11/14 12:11:29;;;;;;;23.27;16.10;;;10.90;67.80;;;;;;5032573;28;20465;-63
2022/11/14 12:14:35;;;;;;;27.48;17.50;;;10.80;67.90;;;;;;5031245;28;20485;-62
2022/11/14 12:17:50;;;;;;;27.60;17.75;;;10.80;68.10;;;;;;5030844;28;20110;-62
2022/11/14 12:20:54;;;;;;;23.98;16.45;;;10.70;68.20;;;;;;5028333;28;20532;-63
2022/11/14 12:24:30;;;;;;;25.58;17.95;;;10.70;68.40;;;;;;5031675;28;20504;-63
2022/11/14 12:27:55;;;;;;;25.42;16.05;;;10.70;68.50;;;;;;4986977;28;20066;-63
2022/11/14 12:30:41;;;;;;;27.75;16.60;;;10.60;68.50;;;;;;4979927;28;20137;-63
2022/11/14 12:33:33;;;;;;;25.10;16.40;;;10.60;68.60;;;;;;4978555;28;20049;-63
2022/11/14 12:36:17;;;;;;;26.33;17.15;;;10.70;68.80;;;;;;4980579;28;20427;-63
2022/11/14 12:39:01;;;;;;;23.67;15.93;;;10.70;68.80;;;;;;4976987;28;20186;-63
2022/11/14 12:41:45;;;;;;;25.40;15.15;;;10.70;68.90;;;;;;4983475;28;20420;-63
2022/11/14 12:44:32;;;;;;;23.85;14.27;;;10.70;68.90;;;;;;4978624;28;20052;-62
2022/11/14 12:47:19;;;;;;;20.42;14.07;;;10.60;69.00;;;;;;4981611;28;20037;-63
2022/11/14 12:50:28;;;;;;;23.60;15.02;;;10.60;69.10;;;;;;4973844;28;20049;-61
2022/11/14 12:53:36;;;;;;;26.55;14.45;;;10.60;69.20;;;;;;4979562;28;20102;-62
2022/11/14 12:56:30;;;;;;;24.00;14.77;;;10.60;69.30;;;;;;4978679;28;20037;-62
2022/11/14 12:59:21;;;;;;;23.48;14.63;;;10.60;69.30;;;;;;5031894;28;20036;-62
2022/11/14 13:02:32;;;;;;;21.38;13.73;;;10.60;69.40;;;;;;5031829;28;20056;-62
2022/11/14 13:05:32;;;;;;;20.05;12.60;;;10.60;69.40;;;;;;5029689;28;20367;-62
2022/11/14 13:08:55;;;;;;;20.85;12.32;;;10.60;69.40;;;;;;5036528;28;20044;-63
2022/11/14 13:21:44;;;;;;;18.60;11.88;;;10.60;69.60;;;;;;5031797;28;20044;-64
2022/11/14 13:24:56;;;;;;;21.67;11.68;;;10.60;69.70;;;;;;5033921;28;20377;-66
2022/11/14 13:27:40;;;;;;;19.17;10.95;;;10.60;69.60;;;;;;5032922;28;20037;-65
2022/11/14 13:31:02;;;;;;;19.05;11.43;;;10.50;69.60;;;;;;5033182;28;20044;-64
2022/11/14 13:34:00;;;;;;;20.60;11.65;;;10.50;69.70;;;;;;5034675;28;20048;-65
2022/11/14 13:36:57;;;;;;;18.55;11.25;;;10.50;69.70;;;;;;5036232;28;20036;-64
2022/11/14 13:39:57;;;;;;;20.45;11.98;;;10.50;69.90;;;;;;5033382;28;20044;-64
2022/11/14 13:42:50;;;;;;;22.13;13.70;;;10.40;69.90;;;;;;5033352;28;20500;-64
2022/11/14 13:46:02;;;;;;;19.52;11.90;;;10.40;70.00;;;;;;5035341;28;20095;-63
2022/11/14 13:48:55;;;;;;;18.17;11.38;;;10.40;70.20;;;;;;5034476;28;20116;-63
2022/11/14 13:51:41;;;;;;;18.17;11.68;;;10.40;70.20;;;;;;5032477;28;20045;-63
2022/11/14 13:54:27;;;;;;;22.52;11.73;;;10.40;70.40;;;;;;5028675;28;20045;-63
2022/11/14 13:57:30;;;;;;;21.35;11.88;;;10.40;70.40;;;;;;5045359;28;20048;-64
2022/11/14 14:00:18;;;;;;;20.77;12.15;;;10.40;70.60;;;;;;5034632;28;20049;-64
2022/11/14 14:03:16;;;;;;;19.50;11.75;;;10.40;70.60;;;;;;5035382;28;20067;-64
2022/11/14 14:06:12;;;;;;;19.58;11.95;;;10.40;70.70;;;;;;5040979;28;20037;-64
2022/11/14 14:09:25;;;;;;;19.73;11.77;;;10.40;70.70;;;;;;5035604;28;20087;-64
2022/11/14 14:13:01;;;;;;;19.80;11.57;;;10.40;70.70;;;;;;5038396;28;20087;-64
2022/11/14 14:15:53;;;;;;;19.65;11.43;;;10.30;70.80;;;;;;5029401;28;20040;-64
2022/11/14 14:19:04;;;;;;;19.13;10.90;;;10.30;70.80;;;;;;5035972;28;20053;-64
2022/11/14 14:22:16;;;;;;;18.35;11.15;;;10.40;71.60;;;;;;5035689;28;20032;-64
2022/11/14 14:25:31;;;;;;;17.77;11.00;;;10.40;70.90;;;;;;5036673;28;20051;-64
2022/11/14 14:28:28;;;;;;;18.17;11.07;;;10.40;70.90;;;;;;5034399;28;20091;-64
2022/11/14 14:31:18;;;;;;;19.50;11.98;;;10.40;71.00;;;;;;5030328;28;20408;-64
2022/11/14 14:34:18;;;;;;;18.20;11.63;;;10.40;71.10;;;;;;5039650;28;20045;-64
2022/11/14 14:37:02;;;;;;;18.20;11.35;;;10.40;71.80;;;;;;5034237;28;20111;-64
2022/11/14 14:40:01;;;;;;;17.73;11.15;;;10.40;71.20;;;;;;5034544;28;20035;-64